Time;durP1;ratioP1;P1;durP2;ratioP2;P2;SDS_P1;SDS_P2;PMS_P1;PMS_P2;Temp;Humidity;BMP_temperature;BMP_pressure;BME280_temperature;BME280_humidity;BME280_pressure;Samples;Min_cycle;Max_cycle;Signal;HPM_P1;HPM_P2
2023/06/18 00:01:47;;;;;;;;;;;;;;;;;;4990591;28;19926;-66
2023/06/18 00:04:13;;;;;;;;;;;;;;;;;;4990929;28;19960;-64
2023/06/18 00:06:40;;;;;;;;;;;;;;;;;;4991235;28;20522;-67
2023/06/18 00:09:07;;;;;;;;;;;;;;;;;;4990600;28;19932;-66
2023/06/18 00:11:33;;;;;;;;;;;;;;;;;;4990756;28;20384;-66
2023/06/18 00:14:01;;;;;;;;;;;;;;;;;;4994642;28;20025;-67
2023/06/18 00:16:27;;;;;;;;;;;;;;;;;;4994822;28;20024;-66
2023/06/18 00:18:54;;;;;;;;;;;;;;;;;;4994372;28;19933;-66
2023/06/18 00:21:20;;;;;;;;;;;;;;;;;;4994584;28;19925;-67
2023/06/18 00:23:46;;;;;;;;;;;;;;;;;;4995292;28;20274;-67
2023/06/18 00:26:13;;;;;;;;;;;;;;;;;;4994438;28;19937;-67
2023/06/18 00:28:39;;;;;;;;;;;;;;;;;;4994540;28;19933;-66
2023/06/18 00:31:07;;;;;;;;;;;;;;;;;;4994524;28;20368;-66
2023/06/18 00:33:33;;;;;;;;;;;;;;;;;;4994823;28;19925;-66
2023/06/18 00:36:00;;;;;;;;;;;;;;;;;;4994474;28;19926;-66
2023/06/18 00:38:27;;;;;;;;;;;;;;;;;;4994882;28;19934;-66
2023/06/18 00:40:53;;;;;;;;;;;;;;;;;;4994282;28;20419;-67
2023/06/18 00:43:20;;;;;;;;;;;;;;;;;;4994760;28;20372;-67
2023/06/18 00:45:46;;;;;;;;;;;;;;;;;;4994220;28;19948;-67
2023/06/18 00:48:14;;;;;;;;;;;;;;;;;;4993724;28;19929;-67
2023/06/18 00:50:42;;;;;;;;;;;;;;;;;;4994183;28;19932;-66
2023/06/18 00:53:12;;;;;;;;;;;;;;;;;;4993747;28;19926;-67
2023/06/18 00:55:38;;;;;;;;;;;;;;;;;;4994413;28;19926;-66
2023/06/18 00:58:05;;;;;;;;;;;;;;;;;;4993721;28;19930;-67
2023/06/18 01:00:33;;;;;;;;;;;;;;;;;;4994210;28;20304;-66
2023/06/18 01:02:59;;;;;;;;;;;;;;;;;;4993792;28;19932;-63
2023/06/18 01:05:31;;;;;;;;;;;;;;;;;;4994181;28;19932;-65
2023/06/18 01:07:59;;;;;;;;;;;;;;;;;;4993624;28;20392;-66
2023/06/18 01:10:29;;;;;;;;;;;;;;;;;;4994234;28;19941;-66
2023/06/18 01:12:58;;;;;;;;;;;;;;;;;;4994076;28;20351;-70
2023/06/18 01:15:26;;;;;;;;;;;;;;;;;;4993947;28;19946;-67
2023/06/18 01:17:56;;;;;;;;;;;;;;;;;;4992504;28;19929;-66
2023/06/18 01:20:25;;;;;;;;;;;;;;;;;;4993710;28;20292;-66
2023/06/18 01:22:57;;;;;;;;;;;;;;;;;;4993583;28;19932;-66
2023/06/18 01:25:25;;;;;;;;;;;;;;;;;;4994160;28;20299;-67
2023/06/18 01:27:53;;;;;;;;;;;;;;;;;;4993866;28;19932;-67
2023/06/18 01:30:21;;;;;;;;;;;;;;;;;;4993332;28;20308;-67
2023/06/18 01:32:48;;;;;;;;;;;;;;;;;;4993992;28;19933;-65
2023/06/18 01:35:15;;;;;;;;;;;;;;;;;;4993560;28;19932;-65
2023/06/18 01:37:45;;;;;;;;;;;;;;;;;;4993505;28;19932;-64
2023/06/18 01:40:18;;;;;;;;;;;;;;;;;;4993548;28;20284;-65
2023/06/18 01:42:49;;;;;;;;;;;;;;;;;;4994065;28;20315;-65
2023/06/18 01:45:18;;;;;;;;;;;;;;;;;;4993358;28;19953;-66
2023/06/18 01:47:45;;;;;;;;;;;;;;;;;;5000393;28;19925;-66
2023/06/18 01:50:13;;;;;;;;;;;;;;;;;;5012502;28;19930;-66
2023/06/18 01:52:41;;;;;;;;;;;;;;;;;;5012295;28;20335;-65
2023/06/18 01:55:09;;;;;;;;;;;;;;;;;;5011700;28;20387;-66
2023/06/18 01:57:36;;;;;;;;;;;;;;;;;;5012813;28;19925;-65
2023/06/18 02:00:04;;;;;;;;;;;;;;;;;;5012540;28;19929;-66
2023/06/18 02:02:30;;;;;;;;;;;;;;;;;;5012492;28;20000;-66
2023/06/18 02:04:57;;;;;;;;;;;;;;;;;;5012991;28;20376;-65
2023/06/18 02:07:23;;;;;;;;;;;;;;;;;;5012090;28;19936;-66
2023/06/18 02:09:50;;;;;;;;;;;;;;;;;;5012267;28;19925;-66
2023/06/18 02:12:16;;;;;;;;;;;;;;;;;;5012408;28;19948;-67
2023/06/18 02:14:44;;;;;;;;;;;;;;;;;;5012636;28;19925;-68
2023/06/18 02:17:10;;;;;;;;;;;;;;;;;;5008672;28;20430;-65
2023/06/18 02:19:37;;;;;;;;;;;;;;;;;;4992811;28;19934;-65
2023/06/18 02:22:03;;;;;;;;;;;;;;;;;;4992375;28;19930;-67
2023/06/18 02:24:31;;;;;;;;;;;;;;;;;;4993185;28;20297;-65
2023/06/18 02:26:57;;;;;;;;;;;;;;;;;;4992120;28;19926;-67
2023/06/18 02:29:23;;;;;;;;;;;;;;;;;;4992803;28;19930;-65
2023/06/18 02:31:51;;;;;;;;;;;;;;;;;;4992384;28;19929;-65
2023/06/18 02:34:18;;;;;;;;;;;;;;;;;;4992305;28;20568;-65
2023/06/18 02:36:44;;;;;;;;;;;;;;;;;;4992146;28;20232;-65
2023/06/18 02:39:11;;;;;;;;;;;;;;;;;;4992611;28;19926;-67
2023/06/18 02:41:37;;;;;;;;;;;;;;;;;;4992609;28;20418;-67
2023/06/18 02:44:04;;;;;;;;;;;;;;;;;;4991871;28;19929;-67
2023/06/18 02:46:31;;;;;;;;;;;;;;;;;;4992356;28;19925;-67
2023/06/18 02:48:58;;;;;;;;;;;;;;;;;;5008107;28;20418;-65
2023/06/18 02:51:25;;;;;;;;;;;;;;;;;;5012153;28;20125;-67
2023/06/18 02:53:51;;;;;;;;;;;;;;;;;;5003344;28;19925;-65
2023/06/18 02:56:18;;;;;;;;;;;;;;;;;;4992211;28;19938;-67
2023/06/18 02:58:46;;;;;;;;;;;;;;;;;;4992010;28;20376;-67
2023/06/18 03:01:12;;;;;;;;;;;;;;;;;;4991869;28;20376;-64
2023/06/18 03:03:39;;;;;;;;;;;;;;;;;;4992091;28;19980;-66
2023/06/18 03:06:07;;;;;;;;;;;;;;;;;;4991808;28;19961;-67
2023/06/18 03:08:33;;;;;;;;;;;;;;;;;;4992082;28;19937;-64
2023/06/18 03:10:59;;;;;;;;;;;;;;;;;;4991809;28;19948;-67
2023/06/18 03:13:26;;;;;;;;;;;;;;;;;;4992268;28;19948;-66
2023/06/18 03:15:52;;;;;;;;;;;;;;;;;;4991577;28;19926;-67
2023/06/18 03:18:18;;;;;;;;;;;;;;;;;;4990568;28;19925;-67
2023/06/18 03:20:45;;;;;;;;;;;;;;;;;;4991249;28;20376;-66
2023/06/18 03:23:13;;;;;;;;;;;;;;;;;;4991823;28;20277;-67
2023/06/18 03:25:39;;;;;;;;;;;;;;;;;;4991486;28;19932;-68
2023/06/18 03:28:06;;;;;;;;;;;;;;;;;;4991455;28;20439;-68
2023/06/18 03:30:32;;;;;;;;;;;;;;;;;;4991138;28;19972;-68
2023/06/18 03:33:01;;;;;;;;;;;;;;;;;;4991033;28;19937;-67
2023/06/18 03:35:27;;;;;;;;;;;;;;;;;;4991645;28;19973;-68
2023/06/18 03:37:54;;;;;;;;;;;;;;;;;;4990835;28;19953;-68
2023/06/18 03:40:22;;;;;;;;;;;;;;;;;;4990909;28;19933;-68
2023/06/18 03:42:48;;;;;;;;;;;;;;;;;;4991122;28;19952;-68
2023/06/18 03:45:14;;;;;;;;;;;;;;;;;;4991456;28;19932;-68
2023/06/18 03:47:41;;;;;;;;;;;;;;;;;;4988724;28;19925;-67
2023/06/18 03:50:08;;;;;;;;;;;;;;;;;;4990737;28;19933;-68
2023/06/18 03:52:34;;;;;;;;;;;;;;;;;;4990911;28;19930;-67
2023/06/18 03:55:01;;;;;;;;;;;;;;;;;;4990235;28;19926;-67
2023/06/18 03:57:30;;;;;;;;;;;;;;;;;;4990555;28;20025;-67
2023/06/18 03:59:57;;;;;;;;;;;;;;;;;;4991234;28;20009;-68
2023/06/18 04:02:23;;;;;;;;;;;;;;;;;;4991333;28;20415;-67
2023/06/18 04:04:50;;;;;;;;;;;;;;;;;;4991132;28;19932;-67
2023/06/18 04:07:16;;;;;;;;;;;;;;;;;;4991107;28;19929;-68
2023/06/18 04:09:43;;;;;;;;;;;;;;;;;;4990095;28;19948;-67
2023/06/18 04:12:09;;;;;;;;;;;;;;;;;;4991271;28;19926;-67
2023/06/18 04:14:37;;;;;;;;;;;;;;;;;;4990766;28;19926;-68
2023/06/18 04:17:03;;;;;;;;;;;;;;;;;;4989920;28;20039;-67
2023/06/18 04:19:30;;;;;;;;;;;;;;;;;;4990185;28;19925;-67
2023/06/18 04:21:56;;;;;;;;;;;;;;;;;;4991292;28;19926;-68
2023/06/18 04:24:23;;;;;;;;;;;;;;;;;;4990430;28;20264;-68
2023/06/18 04:26:49;;;;;;;;;;;;;;;;;;4991125;28;19933;-68
2023/06/18 04:29:16;;;;;;;;;;;;;;;;;;4990480;28;19926;-67
2023/06/18 04:31:46;;;;;;;;;;;;;;;;;;4990389;28;20348;-67
2023/06/18 04:34:12;;;;;;;;;;;;;;;;;;4990595;28;19941;-67
2023/06/18 04:36:40;;;;;;;;;;;;;;;;;;4990201;28;19961;-67
2023/06/18 04:39:06;;;;;;;;;;;;;;;;;;4990695;28;19925;-67
2023/06/18 04:41:33;;;;;;;;;;;;;;;;;;4989725;28;19934;-67
2023/06/18 04:43:59;;;;;;;;;;;;;;;;;;4990701;28;20376;-68
2023/06/18 04:46:25;;;;;;;;;;;;;;;;;;4990144;28;19926;-67
2023/06/18 04:48:53;;;;;;;;;;;;;;;;;;5005118;28;19926;-67
2023/06/18 04:51:20;;;;;;;;;;;;;;;;;;5009128;28;19926;-67
2023/06/18 04:53:46;;;;;;;;;;;;;;;;;;5009250;28;19931;-67
2023/06/18 04:56:12;;;;;;;;;;;;;;;;;;5009732;28;20284;-67
2023/06/18 04:58:40;;;;;;;;;;;;;;;;;;5011704;28;19926;-67
2023/06/18 05:01:07;;;;;;;;;;;;;;;;;;5013000;28;19971;-68
2023/06/18 05:03:33;;;;;;;;;;;;;;;;;;5013647;28;20295;-67
2023/06/18 05:06:01;;;;;;;;;;;;;;;;;;5013545;28;19929;-68
2023/06/18 05:08:27;;;;;;;;;;;;;;;;;;5013590;28;19925;-67
2023/06/18 05:10:54;;;;;;;;;;;;;;;;;;5013540;28;19931;-67
2023/06/18 05:13:20;;;;;;;;;;;;;;;;;;5013444;28;19927;-67
2023/06/18 05:15:47;;;;;;;;;;;;;;;;;;5013532;28;20204;-67
2023/06/18 05:18:13;;;;;;;;;;;;;;;;;;5001010;28;20210;-67
2023/06/18 05:20:39;;;;;;;;;;;;;;;;;;4993111;28;20410;-67
2023/06/18 05:23:07;;;;;;;;;;;;;;;;;;4993443;28;19926;-67
2023/06/18 05:25:36;;;;;;;;;;;;;;;;;;4993568;28;19932;-67
2023/06/18 05:28:02;;;;;;;;;;;;;;;;;;4992950;28;20335;-67
2023/06/18 05:30:28;;;;;;;;;;;;;;;;;;4993188;28;19926;-67
2023/06/18 05:32:55;;;;;;;;;;;;;;;;;;4992977;28;20430;-67
2023/06/18 05:35:21;;;;;;;;;;;;;;;;;;4993574;28;19926;-67
2023/06/18 05:37:49;;;;;;;;;;;;;;;;;;4993625;28;19932;-67
2023/06/18 05:40:16;;;;;;;;;;;;;;;;;;4991654;28;19936;-67
2023/06/18 05:42:43;;;;;;;;;;;;;;;;;;4993574;28;19926;-68
2023/06/18 05:45:09;;;;;;;;;;;;;;;;;;4992754;28;19933;-67
2023/06/18 05:47:36;;;;;;;;;;;;;;;;;;4992450;28;19926;-67
2023/06/18 05:50:02;;;;;;;;;;;;;;;;;;4992450;28;19932;-67
2023/06/18 05:52:29;;;;;;;;;;;;;;;;;;4993762;28;19925;-67
2023/06/18 05:54:55;;;;;;;;;;;;;;;;;;4992007;28;19937;-68
2023/06/18 05:57:23;;;;;;;;;;;;;;;;;;4993003;28;19926;-68
2023/06/18 05:59:49;;;;;;;;;;;;;;;;;;4992310;28;20296;-67
2023/06/18 06:02:15;;;;;;;;;;;;;;;;;;4993060;28;19940;-68
2023/06/18 06:04:42;;;;;;;;;;;;;;;;;;4993591;28;19926;-67
2023/06/18 06:07:08;;;;;;;;;;;;;;;;;;4992551;28;19956;-68
2023/06/18 06:09:35;;;;;;;;;;;;;;;;;;4991902;28;19929;-68
2023/06/18 06:12:01;;;;;;;;;;;;;;;;;;4992754;28;19980;-68
2023/06/18 06:14:29;;;;;;;;;;;;;;;;;;4993148;28;19926;-68
2023/06/18 06:16:57;;;;;;;;;;;;;;;;;;4991980;28;19930;-67
2023/06/18 06:19:24;;;;;;;;;;;;;;;;;;4993140;28;19950;-68
2023/06/18 06:21:50;;;;;;;;;;;;;;;;;;4992242;28;20296;-67
2023/06/18 06:24:17;;;;;;;;;;;;;;;;;;4993278;28;20299;-68
2023/06/18 06:26:43;;;;;;;;;;;;;;;;;;4992165;28;19933;-68
2023/06/18 06:29:09;;;;;;;;;;;;;;;;;;4992287;28;19932;-68
2023/06/18 06:31:37;;;;;;;;;;;;;;;;;;4992014;28;20372;-68
2023/06/18 06:34:03;;;;;;;;;;;;;;;;;;4992650;28;19926;-68
2023/06/18 06:36:30;;;;;;;;;;;;;;;;;;4992444;28;20356;-68
2023/06/18 06:38:56;;;;;;;;;;;;;;;;;;4991355;28;19926;-68
2023/06/18 06:41:23;;;;;;;;;;;;;;;;;;4992006;28;20511;-68
2023/06/18 06:43:49;;;;;;;;;;;;;;;;;;4991613;28;20343;-67
2023/06/18 06:46:16;;;;;;;;;;;;;;;;;;4992086;28;19930;-68
2023/06/18 06:48:43;;;;;;;;;;;;;;;;;;4991841;28;19925;-68
2023/06/18 06:51:10;;;;;;;;;;;;;;;;;;4991908;28;19926;-68
2023/06/18 06:53:36;;;;;;;;;;;;;;;;;;4996334;28;20019;-67
2023/06/18 06:56:02;;;;;;;;;;;;;;;;;;5011126;28;19925;-67
2023/06/18 06:58:29;;;;;;;;;;;;;;;;;;5010930;28;19937;-67
2023/06/18 07:00:55;;;;;;;;;;;;;;;;;;5011070;28;19930;-67
2023/06/18 07:03:22;;;;;;;;;;;;;;;;;;5011547;28;19930;-67
2023/06/18 07:05:50;;;;;;;;;;;;;;;;;;5011429;28;19933;-68
2023/06/18 07:08:16;;;;;;;;;;;;;;;;;;5011201;28;19925;-67
2023/06/18 07:10:43;;;;;;;;;;;;;;;;;;5010416;28;19926;-68
2023/06/18 07:13:09;;;;;;;;;;;;;;;;;;5011531;28;20299;-68
2023/06/18 07:15:36;;;;;;;;;;;;;;;;;;5011458;28;20319;-68
2023/06/18 07:18:02;;;;;;;;;;;;;;;;;;5000208;28;19926;-67
2023/06/18 07:20:28;;;;;;;;;;;;;;;;;;4991045;28;19929;-68
2023/06/18 07:22:56;;;;;;;;;;;;;;;;;;4991439;28;20500;-67
2023/06/18 07:25:22;;;;;;;;;;;;;;;;;;4990826;28;19926;-68
2023/06/18 07:27:49;;;;;;;;;;;;;;;;;;4991457;28;19930;-67
2023/06/18 07:30:15;;;;;;;;;;;;;;;;;;4990760;28;19937;-67
2023/06/18 07:32:41;;;;;;;;;;;;;;;;;;4991467;28;19945;-67
2023/06/18 07:35:08;;;;;;;;;;;;;;;;;;4991495;28;19932;-67
2023/06/18 07:37:34;;;;;;;;;;;;;;;;;;4990969;28;20372;-68
2023/06/18 07:40:03;;;;;;;;;;;;;;;;;;4990675;28;20289;-68
2023/06/18 07:42:29;;;;;;;;;;;;;;;;;;4991172;28;20348;-67
2023/06/18 07:44:55;;;;;;;;;;;;;;;;;;4991640;28;19934;-68
2023/06/18 07:47:22;;;;;;;;;;;;;;;;;;4989868;28;20380;-67
2023/06/18 07:49:48;;;;;;;;;;;;;;;;;;5004756;28;20379;-67
2023/06/18 07:52:14;;;;;;;;;;;;;;;;;;5010424;28;19925;-69
2023/06/18 07:54:41;;;;;;;;;;;;;;;;;;5008274;28;19925;-67
2023/06/18 07:57:09;;;;;;;;;;;;;;;;;;5010116;28;19925;-67
2023/06/18 07:59:35;;;;;;;;;;;;;;;;;;5010083;28;19926;-68
2023/06/18 08:02:02;;;;;;;;;;;;;;;;;;5010686;28;19925;-68
2023/06/18 08:04:28;;;;;;;;;;;;;;;;;;5010124;28;19926;-67
2023/06/18 08:06:54;;;;;;;;;;;;;;;;;;5010656;28;20288;-67
2023/06/18 08:09:21;;;;;;;;;;;;;;;;;;5009896;28;20303;-67
2023/06/18 08:11:48;;;;;;;;;;;;;;;;;;5010555;28;19947;-67
2023/06/18 08:14:16;;;;;;;;;;;;;;;;;;5010231;28;20275;-68
2023/06/18 08:16:42;;;;;;;;;;;;;;;;;;5010534;28;19926;-68
2023/06/18 08:19:09;;;;;;;;;;;;;;;;;;4990790;28;19926;-67
2023/06/18 08:21:35;;;;;;;;;;;;;;;;;;4990380;28;19926;-67
2023/06/18 08:24:02;;;;;;;;;;;;;;;;;;4990749;28;20372;-68
2023/06/18 08:26:28;;;;;;;;;;;;;;;;;;4991033;28;19936;-67
2023/06/18 08:28:55;;;;;;;;;;;;;;;;;;4990688;28;19933;-67
2023/06/18 08:31:23;;;;;;;;;;;;;;;;;;4990701;28;19937;-67
2023/06/18 08:33:49;;;;;;;;;;;;;;;;;;4992749;28;19925;-67
2023/06/18 08:36:16;;;;;;;;;;;;;;;;;;4993930;28;19932;-68
2023/06/18 08:38:42;;;;;;;;;;;;;;;;;;4994595;28;19925;-68
2023/06/18 08:41:11;;;;;;;;;;;;;;;;;;4994034;28;19926;-67
2023/06/18 08:43:38;;;;;;;;;;;;;;;;;;4994725;28;20347;-67
2023/06/18 08:46:09;;;;;;;;;;;;;;;;;;4994293;28;19933;-67
2023/06/18 08:48:39;;;;;;;;;;;;;;;;;;4993437;28;19965;-67
2023/06/18 08:51:06;;;;;;;;;;;;;;;;;;4993747;28;19929;-67
2023/06/18 08:53:36;;;;;;;;;;;;;;;;;;4998446;28;20307;-69
2023/06/18 08:56:03;;;;;;;;;;;;;;;;;;5013637;28;19929;-68
2023/06/18 08:58:31;;;;;;;;;;;;;;;;;;5013798;28;20278;-68
2023/06/18 09:00:58;;;;;;;;;;;;;;;;;;5012964;28;19935;-68
2023/06/18 09:03:24;;;;;;;;;;;;;;;;;;5013465;28;19933;-68
2023/06/18 09:05:52;;;;;;;;;;;;;;;;;;5013944;28;19925;-68
2023/06/18 09:08:19;;;;;;;;;;;;;;;;;;5013224;28;20300;-68
2023/06/18 09:10:45;;;;;;;;;;;;;;;;;;5013259;28;19932;-67
2023/06/18 09:13:11;;;;;;;;;;;;;;;;;;5013265;28;19936;-67
2023/06/18 09:15:38;;;;;;;;;;;;;;;;;;5013645;28;20280;-67
2023/06/18 09:18:05;;;;;;;;;;;;;;;;;;5011444;28;20711;-67
2023/06/18 09:20:33;;;;;;;;;;;;;;;;;;5012858;28;20310;-67
2023/06/18 09:23:07;;;;;;;;;;;;;;;;;;5013008;28;19926;-68
2023/06/18 09:25:33;;;;;;;;;;;;;;;;;;5013421;28;19931;-67
2023/06/18 09:28:00;;;;;;;;;;;;;;;;;;5012788;28;19925;-67
2023/06/18 09:30:27;;;;;;;;;;;;;;;;;;5012781;28;19932;-68
2023/06/18 09:32:57;;;;;;;;;;;;;;;;;;5013356;28;19973;-67
2023/06/18 09:35:23;;;;;;;;;;;;;;;;;;5013944;28;20439;-68
2023/06/18 09:37:50;;;;;;;;;;;;;;;;;;5013183;28;19926;-68
2023/06/18 09:40:18;;;;;;;;;;;;;;;;;;5012766;28;19925;-68
2023/06/18 09:42:45;;;;;;;;;;;;;;;;;;5013364;28;20024;-68
2023/06/18 09:45:12;;;;;;;;;;;;;;;;;;5011529;28;19972;-68
2023/06/18 09:47:38;;;;;;;;;;;;;;;;;;5011545;28;20012;-68
2023/06/18 09:50:06;;;;;;;;;;;;;;;;;;5012441;28;20258;-68
2023/06/18 09:52:41;;;;;;;;;;;;;;;;;;5011864;28;19961;-67
2023/06/18 09:55:25;;;;;;;;;;;;;;;;;;5010075;28;19937;-68
2023/06/18 09:57:53;;;;;;;;;;;;;;;;;;5012584;28;19945;-68
2023/06/18 10:00:20;;;;;;;;;;;;;;;;;;5012171;28;19925;-67
2023/06/18 10:02:49;;;;;;;;;;;;;;;;;;5012831;28;19956;-68
2023/06/18 10:05:16;;;;;;;;;;;;;;;;;;5012372;28;19925;-67
2023/06/18 10:07:43;;;;;;;;;;;;;;;;;;5012543;28;20388;-68
2023/06/18 10:10:13;;;;;;;;;;;;;;;;;;5012022;28;19929;-68
2023/06/18 10:12:40;;;;;;;;;;;;;;;;;;5012891;28;19926;-68
2023/06/18 10:15:09;;;;;;;;;;;;;;;;;;5012321;28;20407;-67
2023/06/18 10:17:37;;;;;;;;;;;;;;;;;;5011297;28;19926;-68
2023/06/18 10:20:04;;;;;;;;;;;;;;;;;;5012011;28;19932;-68
2023/06/18 10:22:34;;;;;;;;;;;;;;;;;;5011791;28;20418;-67
2023/06/18 10:25:02;;;;;;;;;;;;;;;;;;5012301;28;19925;-67
2023/06/18 10:27:29;;;;;;;;;;;;;;;;;;5011750;28;20343;-67
2023/06/18 10:29:57;;;;;;;;;;;;;;;;;;5011069;28;19929;-67
2023/06/18 10:32:25;;;;;;;;;;;;;;;;;;5011836;28;20372;-67
2023/06/18 10:34:52;;;;;;;;;;;;;;;;;;5012260;28;19961;-67
2023/06/18 10:37:19;;;;;;;;;;;;;;;;;;5011543;28;20288;-67
2023/06/18 10:39:46;;;;;;;;;;;;;;;;;;5012004;28;19931;-67
2023/06/18 10:42:13;;;;;;;;;;;;;;;;;;5012267;28;19973;-68
2023/06/18 10:44:53;;;;;;;;;;;;;;;;;;5012102;28;20012;-67
2023/06/18 10:47:20;;;;;;;;;;;;;;;;;;5006957;28;19973;-67
2023/06/18 10:50:05;;;;;;;;;;;;;;;;;;4991718;28;19936;-67
2023/06/18 10:52:33;;;;;;;;;;;;;;;;;;4992004;28;19929;-67
2023/06/18 10:55:05;;;;;;;;;;;;;;;;;;5007760;28;20379;-68
2023/06/18 10:57:32;;;;;;;;;;;;;;;;;;5011368;28;19926;-67
2023/06/18 10:59:58;;;;;;;;;;;;;;;;;;5010739;28;19933;-66
2023/06/18 11:02:31;;;;;;;;;;;;;;;;;;5011793;28;19925;-66
2023/06/18 11:04:58;;;;;;;;;;;;;;;;;;5011346;28;19925;-67
2023/06/18 11:07:26;;;;;;;;;;;;;;;;;;5011373;28;19926;-67
2023/06/18 11:09:56;;;;;;;;;;;;;;;;;;5010660;28;19933;-66
2023/06/18 11:12:23;;;;;;;;;;;;;;;;;;5011405;28;19925;-67
2023/06/18 11:15:08;;;;;;;;;;;;;;;;;;5011004;28;19925;-67
2023/06/18 11:17:34;;;;;;;;;;;;;;;;;;5004587;28;19991;-68
2023/06/18 11:20:01;;;;;;;;;;;;;;;;;;4990985;28;20388;-67
2023/06/18 11:22:28;;;;;;;;;;;;;;;;;;4991717;28;20308;-68
2023/06/18 11:24:57;;;;;;;;;;;;;;;;;;4991369;28;20395;-67
2023/06/18 11:27:25;;;;;;;;;;;;;;;;;;4991572;28;19930;-68
2023/06/18 11:29:52;;;;;;;;;;;;;;;;;;4990847;28;19948;-68
2023/06/18 11:32:18;;;;;;;;;;;;;;;;;;4991792;28;20407;-68
2023/06/18 11:34:46;;;;;;;;;;;;;;;;;;4990908;28;20483;-68
2023/06/18 11:37:12;;;;;;;;;;;;;;;;;;4990902;28;19965;-67
2023/06/18 11:39:40;;;;;;;;;;;;;;;;;;4991171;28;20050;-68
2023/06/18 11:42:14;;;;;;;;;;;;;;;;;;4991126;28;20170;-67
2023/06/18 11:44:47;;;;;;;;;;;;;;;;;;4991516;28;20396;-68
2023/06/18 11:47:14;;;;;;;;;;;;;;;;;;4992773;28;20320;-68
2023/06/18 11:49:41;;;;;;;;;;;;;;;;;;5010596;28;19930;-68
2023/06/18 11:52:08;;;;;;;;;;;;;;;;;;5010354;28;20019;-68
2023/06/18 11:54:35;;;;;;;;;;;;;;;;;;5009692;28;19925;-68
2023/06/18 11:57:01;;;;;;;;;;;;;;;;;;5010176;28;19933;-68
2023/06/18 11:59:29;;;;;;;;;;;;;;;;;;5010676;28;19926;-68
2023/06/18 12:01:56;;;;;;;;;;;;;;;;;;5010506;28;19925;-68
2023/06/18 12:04:22;;;;;;;;;;;;;;;;;;5010859;28;19951;-68
2023/06/18 12:06:48;;;;;;;;;;;;;;;;;;5010840;28;19926;-68
2023/06/18 12:09:15;;;;;;;;;;;;;;;;;;5011132;28;20020;-68
2023/06/18 12:11:49;;;;;;;;;;;;;;;;;;5010454;28;19941;-67
2023/06/18 12:14:30;;;;;;;;;;;;;;;;;;5010462;28;19937;-67
2023/06/18 12:17:00;;;;;;;;;;;;;;;;;;5009390;28;19925;-67
2023/06/18 12:19:27;;;;;;;;;;;;;;;;;;5010149;28;20339;-68
2023/06/18 12:21:53;;;;;;;;;;;;;;;;;;5010356;28;20019;-68
2023/06/18 12:24:20;;;;;;;;;;;;;;;;;;5010049;28;19940;-69
2023/06/18 12:26:46;;;;;;;;;;;;;;;;;;5010220;28;19925;-69
2023/06/18 12:29:12;;;;;;;;;;;;;;;;;;5010030;28;19932;-68
2023/06/18 12:31:39;;;;;;;;;;;;;;;;;;5009695;28;20371;-67
2023/06/18 12:34:22;;;;;;;;;;;;;;;;;;5010112;28;19952;-67
2023/06/18 12:36:48;;;;;;;;;;;;;;;;;;5010395;28;19926;-67
2023/06/18 12:39:15;;;;;;;;;;;;;;;;;;5010009;28;20410;-67
2023/06/18 12:41:41;;;;;;;;;;;;;;;;;;5009846;28;19925;-67
2023/06/18 12:44:09;;;;;;;;;;;;;;;;;;5009789;28;19932;-68
2023/06/18 12:46:36;;;;;;;;;;;;;;;;;;5010157;28;19980;-68
2023/06/18 12:49:03;;;;;;;;;;;;;;;;;;5009479;28;19984;-67
2023/06/18 12:51:41;;;;;;;;;;;;;;;;;;5009613;28;20467;-68
2023/06/18 12:54:12;;;;;;;;;;;;;;;;;;5009268;28;19932;-67
2023/06/18 12:56:46;;;;;;;;;;;;;;;;;;5009638;28;19932;-67
2023/06/18 12:59:16;;;;;;;;;;;;;;;;;;5010267;28;19925;-68
2023/06/18 13:01:43;;;;;;;;;;;;;;;;;;5009504;28;19926;-67
2023/06/18 13:04:09;;;;;;;;;;;;;;;;;;5010139;28;20390;-68
2023/06/18 13:06:36;;;;;;;;;;;;;;;;;;5009484;28;20064;-68
2023/06/18 13:09:05;;;;;;;;;;;;;;;;;;5010037;28;20406;-69
2023/06/18 13:11:32;;;;;;;;;;;;;;;;;;5008989;28;19925;-68
2023/06/18 13:13:58;;;;;;;;;;;;;;;;;;5010346;28;19976;-68
2023/06/18 13:16:25;;;;;;;;;;;;;;;;;;5009562;28;19932;-68
2023/06/18 13:18:51;;;;;;;;;;;;;;;;;;5009248;28;19930;-67
2023/06/18 13:21:18;;;;;;;;;;;;;;;;;;5012770;28;20004;-68
2023/06/18 13:23:45;;;;;;;;;;;;;;;;;;5013252;28;20009;-68
2023/06/18 13:26:12;;;;;;;;;;;;;;;;;;5013759;28;19929;-67
2023/06/18 13:28:39;;;;;;;;;;;;;;;;;;5012692;28;19926;-68
2023/06/18 13:31:05;;;;;;;;;;;;;;;;;;5011189;28;19932;-67
2023/06/18 13:33:31;;;;;;;;;;;;;;;;;;4993582;28;19926;-68
2023/06/18 13:35:58;;;;;;;;;;;;;;;;;;4993377;28;19926;-67
2023/06/18 13:38:24;;;;;;;;;;;;;;;;;;4992836;28;19937;-68
2023/06/18 13:40:51;;;;;;;;;;;;;;;;;;4993271;28;19980;-67
2023/06/18 13:43:19;;;;;;;;;;;;;;;;;;4993190;28;19925;-67
2023/06/18 13:45:45;;;;;;;;;;;;;;;;;;4993652;28;19925;-67
2023/06/18 13:48:12;;;;;;;;;;;;;;;;;;4992304;28;20013;-67
2023/06/18 13:50:38;;;;;;;;;;;;;;;;;;4992877;28;19926;-68
2023/06/18 13:53:05;;;;;;;;;;;;;;;;;;4993792;28;19936;-68
2023/06/18 13:55:31;;;;;;;;;;;;;;;;;;4993031;28;19937;-68
2023/06/18 13:57:58;;;;;;;;;;;;;;;;;;4993235;28;19926;-68
2023/06/18 14:00:26;;;;;;;;;;;;;;;;;;4992587;28;19972;-67
2023/06/18 14:02:53;;;;;;;;;;;;;;;;;;4993280;28;19933;-67
2023/06/18 14:05:19;;;;;;;;;;;;;;;;;;4992644;28;19985;-67
2023/06/18 14:07:46;;;;;;;;;;;;;;;;;;4993163;28;20360;-67
2023/06/18 14:10:12;;;;;;;;;;;;;;;;;;4992021;28;19926;-68
2023/06/18 14:12:40;;;;;;;;;;;;;;;;;;4993134;28;19932;-67
2023/06/18 14:15:07;;;;;;;;;;;;;;;;;;4992753;28;19933;-68
2023/06/18 14:17:35;;;;;;;;;;;;;;;;;;4997057;28;19925;-67
2023/06/18 14:20:02;;;;;;;;;;;;;;;;;;5011919;28;19972;-67
2023/06/18 14:22:29;;;;;;;;;;;;;;;;;;5012274;28;19925;-66
2023/06/18 14:24:58;;;;;;;;;;;;;;;;;;5012533;28;20346;-66
2023/06/18 14:27:24;;;;;;;;;;;;;;;;;;5011694;28;19990;-66
2023/06/18 14:29:51;;;;;;;;;;;;;;;;;;4988195;28;20423;-66
2023/06/18 14:32:17;;;;;;;;;;;;;;;;;;4971726;28;19926;-66
2023/06/18 14:34:45;;;;;;;;;;;;;;;;;;4983670;28;20367;-66
2023/06/18 14:37:11;;;;;;;;;;;;;;;;;;5011364;28;19929;-67
2023/06/18 14:39:38;;;;;;;;;;;;;;;;;;5011626;28;19932;-67
2023/06/18 14:42:04;;;;;;;;;;;;;;;;;;5011846;28;19951;-67
2023/06/18 14:44:31;;;;;;;;;;;;;;;;;;5011965;28;20024;-66
2023/06/18 14:46:57;;;;;;;;;;;;;;;;;;5011950;28;19930;-67
2023/06/18 14:49:24;;;;;;;;;;;;;;;;;;5011151;28;19932;-66
2023/06/18 14:51:51;;;;;;;;;;;;;;;;;;5011267;28;19925;-67
2023/06/18 14:54:20;;;;;;;;;;;;;;;;;;4999052;28;19932;-67
2023/06/18 14:56:50;;;;;;;;;;;;;;;;;;4992051;28;19925;-67
2023/06/18 14:59:17;;;;;;;;;;;;;;;;;;4991829;28;19988;-67
2023/06/18 15:01:43;;;;;;;;;;;;;;;;;;4991761;28;20303;-67
2023/06/18 15:04:10;;;;;;;;;;;;;;;;;;4991594;28;19936;-67
2023/06/18 15:06:36;;;;;;;;;;;;;;;;;;4992219;28;20435;-67
2023/06/18 15:09:05;;;;;;;;;;;;;;;;;;4991889;28;19932;-67
2023/06/18 15:11:32;;;;;;;;;;;;;;;;;;4991535;28;20025;-67
2023/06/18 15:13:58;;;;;;;;;;;;;;;;;;4991365;28;19940;-67
2023/06/18 15:16:25;;;;;;;;;;;;;;;;;;4992032;28;20372;-67
2023/06/18 15:18:51;;;;;;;;;;;;;;;;;;5006325;28;19929;-67
2023/06/18 15:21:18;;;;;;;;;;;;;;;;;;5010619;28;19933;-67
2023/06/18 15:23:44;;;;;;;;;;;;;;;;;;5011287;28;19932;-67
2023/06/18 15:26:14;;;;;;;;;;;;;;;;;;5010704;28;19937;-67
2023/06/18 15:28:40;;;;;;;;;;;;;;;;;;5011051;28;19972;-67
2023/06/18 15:31:09;;;;;;;;;;;;;;;;;;5009998;28;19926;-67
2023/06/18 15:33:36;;;;;;;;;;;;;;;;;;5011138;28;20380;-67
2023/06/18 15:36:02;;;;;;;;;;;;;;;;;;5010743;28;19930;-67
2023/06/18 15:38:28;;;;;;;;;;;;;;;;;;5011366;28;19932;-67
2023/06/18 15:40:55;;;;;;;;;;;;;;;;;;4988797;28;20306;-67
2023/06/18 15:43:22;;;;;;;;;;;;;;;;;;4989256;28;19933;-67
2023/06/18 15:45:49;;;;;;;;;;;;;;;;;;4989821;28;19926;-67
2023/06/18 15:48:18;;;;;;;;;;;;;;;;;;4990227;28;19925;-67
2023/06/18 15:50:44;;;;;;;;;;;;;;;;;;5001360;28;20004;-66
2023/06/18 15:53:11;;;;;;;;;;;;;;;;;;4991110;28;20376;-67
2023/06/18 15:55:37;;;;;;;;;;;;;;;;;;5010874;28;19926;-67
2023/06/18 15:58:03;;;;;;;;;;;;;;;;;;5010039;28;19926;-66
2023/06/18 16:00:31;;;;;;;;;;;;;;;;;;5010320;28;19932;-67
2023/06/18 16:02:57;;;;;;;;;;;;;;;;;;5010388;28;20324;-67
2023/06/18 16:05:24;;;;;;;;;;;;;;;;;;5010842;28;20327;-67
2023/06/18 16:07:50;;;;;;;;;;;;;;;;;;5010136;28;19932;-67
2023/06/18 16:10:17;;;;;;;;;;;;;;;;;;5010176;28;19925;-67
2023/06/18 16:12:43;;;;;;;;;;;;;;;;;;5010301;28;19926;-67
2023/06/18 16:15:10;;;;;;;;;;;;;;;;;;5010986;28;19926;-68
2023/06/18 16:17:37;;;;;;;;;;;;;;;;;;5009484;28;19925;-68
2023/06/18 16:20:04;;;;;;;;;;;;;;;;;;5009889;28;19925;-68
2023/06/18 16:22:31;;;;;;;;;;;;;;;;;;5010737;28;19925;-68
2023/06/18 16:24:57;;;;;;;;;;;;;;;;;;5009870;28;19932;-67
2023/06/18 16:27:24;;;;;;;;;;;;;;;;;;5010629;28;19934;-68
2023/06/18 16:29:51;;;;;;;;;;;;;;;;;;5009803;28;19933;-67
2023/06/18 16:32:17;;;;;;;;;;;;;;;;;;5010488;28;20284;-66
2023/06/18 16:34:45;;;;;;;;;;;;;;;;;;5010236;28;20291;-66
2023/06/18 16:37:11;;;;;;;;;;;;;;;;;;5010509;28;19973;-66
2023/06/18 16:39:38;;;;;;;;;;;;;;;;;;5009303;28;20287;-67
2023/06/18 16:42:04;;;;;;;;;;;;;;;;;;5010487;28;19925;-66
2023/06/18 16:44:31;;;;;;;;;;;;;;;;;;5010346;28;19925;-67
2023/06/18 16:46:57;;;;;;;;;;;;;;;;;;5009188;28;19932;-66